sensor_id;sensor_type;location;lat;lon;timestamp;pressure;altitude;pressure_sealevel;temperature;humidity
20003;BME280;10162;41.600;23.806;2024-03-17T00:01:25;95388.22;;;9.33;100.00
20003;BME280;10162;41.600;23.806;2024-03-17T00:03:50;95393.41;;;9.19;100.00
20003;BME280;10162;41.600;23.806;2024-03-17T00:06:17;95388.66;;;9.22;100.00
20003;BME280;10162;41.600;23.806;2024-03-17T00:11:54;95398.72;;;9.40;100.00
20003;BME280;10162;41.600;23.806;2024-03-17T00:14:21;95391.59;;;9.48;100.00
20003;BME280;10162;41.600;23.806;2024-03-17T00:16:47;95379.84;;;9.38;100.00
20003;BME280;10162;41.600;23.806;2024-03-17T00:22:06;95395.28;;;9.54;100.00
20003;BME280;10162;41.600;23.806;2024-03-17T00:24:35;95365.84;;;9.45;100.00
20003;BME280;10162;41.600;23.806;2024-03-17T00:27:03;95377.19;;;9.52;100.00
20003;BME280;10162;41.600;23.806;2024-03-17T00:29:29;95354.34;;;9.40;100.00
20003;BME280;10162;41.600;23.806;2024-03-17T00:31:55;95387.38;;;9.62;100.00
20003;BME280;10162;41.600;23.806;2024-03-17T00:34:21;95381.16;;;9.48;100.00
20003;BME280;10162;41.600;23.806;2024-03-17T00:36:47;95367.03;;;9.43;100.00
20003;BME280;10162;41.600;23.806;2024-03-17T00:42:09;95360.38;;;9.40;100.00
20003;BME280;10162;41.600;23.806;2024-03-17T00:44:35;95392.41;;;9.64;100.00
20003;BME280;10162;41.600;23.806;2024-03-17T00:47:01;95380.09;;;9.43;100.00
20003;BME280;10162;41.600;23.806;2024-03-17T00:49:26;95374.63;;;9.38;100.00
20003;BME280;10162;41.600;23.806;2024-03-17T00:51:52;95390.34;;;9.44;100.00
20003;BME280;10162;41.600;23.806;2024-03-17T00:54:18;95390.97;;;9.46;100.00
20003;BME280;10162;41.600;23.806;2024-03-17T00:56:43;95383.94;;;9.47;100.00
20003;BME280;10162;41.600;23.806;2024-03-17T00:59:33;95403.81;;;9.63;100.00
20003;BME280;10162;41.600;23.806;2024-03-17T01:01:59;95384.84;;;9.54;100.00
20003;BME280;10162;41.600;23.806;2024-03-17T01:04:25;95380.09;;;9.43;100.00
20003;BME280;10162;41.600;23.806;2024-03-17T01:06:50;95382.53;;;9.44;100.00
20003;BME280;10162;41.600;23.806;2024-03-17T01:09:37;95397.63;;;9.49;100.00
20003;BME280;10162;41.600;23.806;2024-03-17T01:12:03;95378.13;;;9.30;100.00
20003;BME280;10162;41.600;23.806;2024-03-17T01:14:29;95379.66;;;9.39;100.00
20003;BME280;10162;41.600;23.806;2024-03-17T01:16:56;95369.81;;;9.41;100.00
20003;BME280;10162;41.600;23.806;2024-03-17T01:19:22;95366.69;;;9.31;100.00
20003;BME280;10162;41.600;23.806;2024-03-17T01:21:48;95387.53;;;9.46;100.00
20003;BME280;10162;41.600;23.806;2024-03-17T01:24:14;95381.63;;;9.37;100.00
20003;BME280;10162;41.600;23.806;2024-03-17T01:26:39;95397.00;;;9.47;100.00
20003;BME280;10162;41.600;23.806;2024-03-17T01:32:10;95344.47;;;8.91;100.00
20003;BME280;10162;41.600;23.806;2024-03-17T01:34:38;95368.16;;;9.04;100.00
20003;BME280;10162;41.600;23.806;2024-03-17T01:39:59;95359.56;;;8.96;100.00
20003;BME280;10162;41.600;23.806;2024-03-17T01:42:25;95365.44;;;9.12;100.00
20003;BME280;10162;41.600;23.806;2024-03-17T01:44:51;95395.22;;;9.33;100.00
20003;BME280;10162;41.600;23.806;2024-03-17T01:50:26;95356.72;;;9.05;100.00
20003;BME280;10162;41.600;23.806;2024-03-17T01:52:56;95337.38;;;9.00;100.00
20003;BME280;10162;41.600;23.806;2024-03-17T01:55:28;95375.66;;;8.85;100.00
20003;BME280;10162;41.600;23.806;2024-03-17T02:00:44;95367.59;;;9.09;100.00
20003;BME280;10162;41.600;23.806;2024-03-17T02:03:09;95386.66;;;9.24;100.00
20003;BME280;10162;41.600;23.806;2024-03-17T02:05:36;95375.69;;;9.14;100.00
20003;BME280;10162;41.600;23.806;2024-03-17T02:11:30;95384.03;;;8.95;100.00
20003;BME280;10162;41.600;23.806;2024-03-17T02:13:57;95333.13;;;8.69;100.00
20003;BME280;10162;41.600;23.806;2024-03-17T02:16:24;95359.19;;;8.84;100.00
20003;BME280;10162;41.600;23.806;2024-03-17T02:19:02;95360.75;;;8.93;100.00
20003;BME280;10162;41.600;23.806;2024-03-17T02:21:28;95359.19;;;8.69;100.00
20003;BME280;10162;41.600;23.806;2024-03-17T02:23:55;95360.94;;;8.92;100.00
20003;BME280;10162;41.600;23.806;2024-03-17T02:26:21;95352.47;;;8.90;100.00
20003;BME280;10162;41.600;23.806;2024-03-17T02:32:41;95360.94;;;9.06;100.00
20003;BME280;10162;41.600;23.806;2024-03-17T02:35:07;95361.19;;;8.97;100.00
20003;BME280;10162;41.600;23.806;2024-03-17T02:41:02;95359.03;;;9.00;100.00
20003;BME280;10162;41.600;23.806;2024-03-17T02:43:29;95366.47;;;8.89;100.00
20003;BME280;10162;41.600;23.806;2024-03-17T02:45:55;95302.63;;;8.55;100.00
20003;BME280;10162;41.600;23.806;2024-03-17T02:48:26;95351.69;;;9.04;100.00
20003;BME280;10162;41.600;23.806;2024-03-17T02:50:52;95354.19;;;9.12;100.00
20003;BME280;10162;41.600;23.806;2024-03-17T02:53:18;95344.78;;;9.11;100.00
20003;BME280;10162;41.600;23.806;2024-03-17T02:55:44;95353.91;;;9.07;100.00
20003;BME280;10162;41.600;23.806;2024-03-17T02:58:13;95342.56;;;9.00;100.00
20003;BME280;10162;41.600;23.806;2024-03-17T03:00:39;95347.44;;;9.03;100.00
20003;BME280;10162;41.600;23.806;2024-03-17T03:03:05;95334.03;;;8.91;100.00
20003;BME280;10162;41.600;23.806;2024-03-17T03:05:32;95329.72;;;8.84;100.00
20003;BME280;10162;41.600;23.806;2024-03-17T03:08:01;95329.09;;;8.82;100.00
20003;BME280;10162;41.600;23.806;2024-03-17T03:10:27;95337.19;;;8.87;100.00
20003;BME280;10162;41.600;23.806;2024-03-17T03:12:52;95334.69;;;8.93;100.00
20003;BME280;10162;41.600;23.806;2024-03-17T03:15:18;95347.16;;;8.83;100.00
20003;BME280;10162;41.600;23.806;2024-03-17T03:18:04;95367.78;;;8.93;100.00
20003;BME280;10162;41.600;23.806;2024-03-17T03:20:30;95308.97;;;8.76;100.00
20003;BME280;10162;41.600;23.806;2024-03-17T03:22:55;95328.75;;;8.99;100.00
20003;BME280;10162;41.600;23.806;2024-03-17T03:25:21;95334.69;;;9.08;100.00
20003;BME280;10162;41.600;23.806;2024-03-17T03:28:00;95351.69;;;9.04;100.00
20003;BME280;10162;41.600;23.806;2024-03-17T03:30:27;95315.00;;;8.76;100.00
20003;BME280;10162;41.600;23.806;2024-03-17T03:32:53;95359.91;;;8.78;100.00
20003;BME280;10162;41.600;23.806;2024-03-17T03:35:19;95351.97;;;8.57;100.00
20003;BME280;10162;41.600;23.806;2024-03-17T03:40:51;95354.84;;;8.62;100.00
20003;BME280;10162;41.600;23.806;2024-03-17T03:43:18;95356.00;;;8.82;100.00
20003;BME280;10162;41.600;23.806;2024-03-17T03:45:43;95349.31;;;8.65;100.00
20003;BME280;10162;41.600;23.806;2024-03-17T03:48:11;95347.84;;;8.62;100.00
20003;BME280;10162;41.600;23.806;2024-03-17T03:50:38;95349.53;;;8.55;100.00
20003;BME280;10162;41.600;23.806;2024-03-17T03:53:04;95362.41;;;8.57;100.00
20003;BME280;10162;41.600;23.806;2024-03-17T03:55:31;95348.06;;;8.38;100.00
20003;BME280;10162;41.600;23.806;2024-03-17T03:57:58;95368.03;;;8.46;100.00
20003;BME280;10162;41.600;23.806;2024-03-17T04:00:24;95368.06;;;8.60;100.00
20003;BME280;10162;41.600;23.806;2024-03-17T04:02:55;95368.00;;;8.68;100.00
20003;BME280;10162;41.600;23.806;2024-03-17T04:05:20;95337.91;;;8.43;100.00
20003;BME280;10162;41.600;23.806;2024-03-17T04:08:13;95381.84;;;8.69;100.00
20003;BME280;10162;41.600;23.806;2024-03-17T04:10:53;95361.28;;;8.37;100.00
20003;BME280;10162;41.600;23.806;2024-03-17T04:13:20;95376.88;;;8.59;100.00
20003;BME280;10162;41.600;23.806;2024-03-17T04:15:45;95374.78;;;8.55;100.00
20003;BME280;10162;41.600;23.806;2024-03-17T04:18:35;95389.38;;;8.64;100.00
20003;BME280;10162;41.600;23.806;2024-03-17T04:21:03;95375.03;;;8.45;100.00
20003;BME280;10162;41.600;23.806;2024-03-17T04:23:29;95381.06;;;8.46;100.00
20003;BME280;10162;41.600;23.806;2024-03-17T04:25:57;95393.50;;;8.58;100.00
20003;BME280;10162;41.600;23.806;2024-03-17T04:28:24;95375.41;;;8.42;100.00
20003;BME280;10162;41.600;23.806;2024-03-17T04:30:50;95366.13;;;8.40;100.00
20003;BME280;10162;41.600;23.806;2024-03-17T04:33:16;95370.09;;;8.50;100.00
20003;BME280;10162;41.600;23.806;2024-03-17T04:35:44;95374.22;;;8.45;100.00
20003;BME280;10162;41.600;23.806;2024-03-17T04:38:22;95384.28;;;8.85;100.00
20003;BME280;10162;41.600;23.806;2024-03-17T04:40:48;95393.34;;;8.75;100.00
20003;BME280;10162;41.600;23.806;2024-03-17T04:43:14;95388.78;;;8.77;100.00
20003;BME280;10162;41.600;23.806;2024-03-17T04:45:40;95383.28;;;8.49;100.00
20003;BME280;10162;41.600;23.806;2024-03-17T04:48:22;95409.97;;;8.74;100.00
20003;BME280;10162;41.600;23.806;2024-03-17T04:50:47;95396.44;;;8.55;100.00
20003;BME280;10162;41.600;23.806;2024-03-17T04:53:13;95372.59;;;8.44;100.00
20003;BME280;10162;41.600;23.806;2024-03-17T04:55:39;95390.25;;;8.56;100.00
20003;BME280;10162;41.600;23.806;2024-03-17T05:02:02;95417.91;;;8.80;100.00
20003;BME280;10162;41.600;23.806;2024-03-17T05:04:29;95375.88;;;8.60;100.00
20003;BME280;10162;41.600;23.806;2024-03-17T05:06:54;95430.63;;;8.98;100.00
20003;BME280;10162;41.600;23.806;2024-03-17T05:09:39;95422.91;;;9.04;100.00
20003;BME280;10162;41.600;23.806;2024-03-17T05:12:05;95374.19;;;8.67;100.00
20003;BME280;10162;41.600;23.806;2024-03-17T05:14:31;95402.28;;;8.95;100.00
20003;BME280;10162;41.600;23.806;2024-03-17T05:16:56;95405.22;;;8.77;100.00
20003;BME280;10162;41.600;23.806;2024-03-17T05:19:22;95405.84;;;8.64;100.00
20003;BME280;10162;41.600;23.806;2024-03-17T05:21:48;95401.72;;;8.85;100.00
20003;BME280;10162;41.600;23.806;2024-03-17T05:49:39;95432.13;;;9.44;100.00
20003;BME280;10162;41.600;23.806;2024-03-17T05:52:07;95439.94;;;9.44;100.00
20003;BME280;10162;41.600;23.806;2024-03-17T05:54:34;95424.53;;;9.20;100.00
20003;BME280;10162;41.600;23.806;2024-03-17T05:56:59;95429.75;;;9.35;100.00
20003;BME280;10162;41.600;23.806;2024-03-17T05:59:25;95432.13;;;9.44;100.00
20003;BME280;10162;41.600;23.806;2024-03-17T06:01:51;95439.75;;;9.46;100.00
20003;BME280;10162;41.600;23.806;2024-03-17T06:04:16;95428.69;;;9.44;100.00
20003;BME280;10162;41.600;23.806;2024-03-17T06:06:42;95434.44;;;9.54;100.00
20003;BME280;10162;41.600;23.806;2024-03-17T06:09:31;95443.53;;;9.73;100.00
20003;BME280;10162;41.600;23.806;2024-03-17T06:11:57;95434.53;;;9.61;100.00
20003;BME280;10162;41.600;23.806;2024-03-17T06:14:23;95442.69;;;9.87;100.00
20003;BME280;10162;41.600;23.806;2024-03-17T06:16:48;95446.63;;;9.98;100.00
20003;BME280;10162;41.600;23.806;2024-03-17T06:19:30;95459.84;;;10.25;100.00
20003;BME280;10162;41.600;23.806;2024-03-17T06:21:56;95449.72;;;10.37;100.00
20003;BME280;10162;41.600;23.806;2024-03-17T06:24:23;95443.88;;;10.56;100.00
20003;BME280;10162;41.600;23.806;2024-03-17T06:26:50;95457.38;;;10.60;100.00
20003;BME280;10162;41.600;23.806;2024-03-17T06:29:28;95454.84;;;10.66;100.00
20003;BME280;10162;41.600;23.806;2024-03-17T06:31:59;95451.94;;;10.76;100.00
20003;BME280;10162;41.600;23.806;2024-03-17T06:34:26;95437.81;;;10.70;100.00
20003;BME280;10162;41.600;23.806;2024-03-17T06:36:51;95437.75;;;10.64;100.00
20003;BME280;10162;41.600;23.806;2024-03-17T06:39:31;95453.53;;;10.98;100.00
20003;BME280;10162;41.600;23.806;2024-03-17T06:41:57;95472.09;;;10.82;100.00
20003;BME280;10162;41.600;23.806;2024-03-17T06:44:23;95475.97;;;10.86;100.00
20003;BME280;10162;41.600;23.806;2024-03-17T06:46:52;95457.97;;;11.26;100.00
20003;BME280;10162;41.600;23.806;2024-03-17T06:49:18;95463.03;;;11.62;100.00
20003;BME280;10162;41.600;23.806;2024-03-17T06:51:44;95472.81;;;11.81;100.00
20003;BME280;10162;41.600;23.806;2024-03-17T06:54:10;95451.75;;;11.61;100.00
20003;BME280;10162;41.600;23.806;2024-03-17T06:56:35;95460.97;;;11.50;100.00
20003;BME280;10162;41.600;23.806;2024-03-17T06:59:22;95484.16;;;11.60;100.00
20003;BME280;10162;41.600;23.806;2024-03-17T07:01:47;95478.66;;;11.76;100.00
20003;BME280;10162;41.600;23.806;2024-03-17T07:04:13;95492.38;;;11.85;100.00
20003;BME280;10162;41.600;23.806;2024-03-17T07:06:39;95466.53;;;12.10;100.00
20003;BME280;10162;41.600;23.806;2024-03-17T07:09:04;95474.78;;;12.13;100.00
20003;BME280;10162;41.600;23.806;2024-03-17T07:11:30;95478.22;;;12.14;100.00
20003;BME280;10162;41.600;23.806;2024-03-17T07:13:57;95470.63;;;12.32;100.00
20003;BME280;10162;41.600;23.806;2024-03-17T07:16:22;95489.19;;;12.37;100.00
20003;BME280;10162;41.600;23.806;2024-03-17T07:22:45;95465.81;;;12.35;100.00
20003;BME280;10162;41.600;23.806;2024-03-17T07:25:11;95467.41;;;12.36;100.00
20003;BME280;10162;41.600;23.806;2024-03-17T07:27:45;95457.66;;;12.11;100.00
20003;BME280;10162;41.600;23.806;2024-03-17T07:30:10;95453.59;;;12.75;100.00
20003;BME280;10162;41.600;23.806;2024-03-17T07:32:36;95450.97;;;12.75;100.00
20003;BME280;10162;41.600;23.806;2024-03-17T07:35:03;95441.91;;;12.84;100.00
20003;BME280;10162;41.600;23.806;2024-03-17T07:41:23;95470.81;;;13.17;100.00
20003;BME280;10162;41.600;23.806;2024-03-17T07:43:52;95476.63;;;13.59;100.00
20003;BME280;10162;41.600;23.806;2024-03-17T07:46:18;95433.44;;;13.02;100.00
20003;BME280;10162;41.600;23.806;2024-03-17T07:56:13;95455.66;;;13.13;100.00
20003;BME280;10162;41.600;23.806;2024-03-17T08:12:59;95450.88;;;13.94;96.37
20003;BME280;10162;41.600;23.806;2024-03-17T08:15:24;95428.22;;;13.99;94.61
20003;BME280;10162;41.600;23.806;2024-03-17T08:17:57;95454.56;;;14.44;91.91
20003;BME280;10162;41.600;23.806;2024-03-17T08:20:26;95445.66;;;14.45;90.89
20003;BME280;10162;41.600;23.806;2024-03-17T08:22:51;95426.56;;;14.12;89.94
20003;BME280;10162;41.600;23.806;2024-03-17T08:25:17;95422.75;;;14.01;88.62
20003;BME280;10162;41.600;23.806;2024-03-17T08:30:55;95441.56;;;14.49;88.17
20003;BME280;10162;41.600;23.806;2024-03-17T08:33:22;95433.06;;;14.47;87.34
20003;BME280;10162;41.600;23.806;2024-03-17T08:36:07;95419.69;;;14.11;87.16
20003;BME280;10162;41.600;23.806;2024-03-17T08:38:38;95420.47;;;14.87;85.28
20003;BME280;10162;41.600;23.806;2024-03-17T08:41:05;95434.25;;;14.58;84.71
20003;BME280;10162;41.600;23.806;2024-03-17T08:43:32;95410.53;;;14.89;83.69
20003;BME280;10162;41.600;23.806;2024-03-17T08:46:02;95412.97;;;14.59;84.06
20003;BME280;10162;41.600;23.806;2024-03-17T08:48:46;95397.50;;;14.44;84.15
20003;BME280;10162;41.600;23.806;2024-03-17T08:51:11;95381.63;;;14.13;85.88
20003;BME280;10162;41.600;23.806;2024-03-17T08:53:37;95393.56;;;14.16;86.80
20003;BME280;10162;41.600;23.806;2024-03-17T08:56:07;95378.31;;;14.37;82.78
20003;BME280;10162;41.600;23.806;2024-03-17T08:58:52;95403.78;;;14.75;84.80
20003;BME280;10162;41.600;23.806;2024-03-17T09:01:18;95383.69;;;15.48;80.07
20003;BME280;10162;41.600;23.806;2024-03-17T09:03:44;95367.47;;;15.69;76.26
20003;BME280;10162;41.600;23.806;2024-03-17T09:06:16;95389.88;;;15.60;77.51
20003;BME280;10162;41.600;23.806;2024-03-17T09:08:43;95364.38;;;15.73;76.88
20003;BME280;10162;41.600;23.806;2024-03-17T09:11:12;95344.63;;;15.63;76.31
20003;BME280;10162;41.600;23.806;2024-03-17T09:13:41;95377.59;;;15.05;79.41
20003;BME280;10162;41.600;23.806;2024-03-17T09:16:08;95374.19;;;14.79;79.27
20003;BME280;10162;41.600;23.806;2024-03-17T09:18:37;95365.69;;;14.77;79.96
20003;BME280;10162;41.600;23.806;2024-03-17T09:21:07;95382.88;;;14.48;80.55
20003;BME280;10162;41.600;23.806;2024-03-17T09:23:34;95373.84;;;14.38;79.43
20003;BME280;10162;41.600;23.806;2024-03-17T09:28:30;95365.59;;;14.28;80.40
20003;BME280;10162;41.600;23.806;2024-03-17T09:30:56;95370.38;;;14.06;80.26
20003;BME280;10162;41.600;23.806;2024-03-17T09:33:23;95365.72;;;14.46;80.02
20003;BME280;10162;41.600;23.806;2024-03-17T09:36:09;95358.00;;;14.51;77.01
20003;BME280;10162;41.600;23.806;2024-03-17T09:38:51;95360.22;;;15.22;74.07
20003;BME280;10162;41.600;23.806;2024-03-17T09:41:22;95328.88;;;14.96;71.68
20003;BME280;10162;41.600;23.806;2024-03-17T09:43:48;95361.78;;;15.29;72.92
20003;BME280;10162;41.600;23.806;2024-03-17T09:46:15;95353.72;;;16.16;68.17
20003;BME280;10162;41.600;23.806;2024-03-17T09:48:42;95327.78;;;15.83;67.15
20003;BME280;10162;41.600;23.806;2024-03-17T09:51:18;95359.13;;;16.21;64.46
20003;BME280;10162;41.600;23.806;2024-03-17T09:53:44;95315.56;;;17.18;61.74
20003;BME280;10162;41.600;23.806;2024-03-17T09:56:15;95331.84;;;17.38;60.35
20003;BME280;10162;41.600;23.806;2024-03-17T09:58:45;95342.31;;;17.68;59.35
20003;BME280;10162;41.600;23.806;2024-03-17T10:01:11;95326.47;;;17.45;55.18
20003;BME280;10162;41.600;23.806;2024-03-17T10:03:53;95348.19;;;17.12;57.77
20003;BME280;10162;41.600;23.806;2024-03-17T10:06:25;95336.81;;;16.88;58.23
20003;BME280;10162;41.600;23.806;2024-03-17T10:09:23;95340.25;;;16.88;58.63
20003;BME280;10162;41.600;23.806;2024-03-17T10:11:49;95321.13;;;16.10;59.75
20003;BME280;10162;41.600;23.806;2024-03-17T10:14:17;95342.72;;;16.30;58.76
20003;BME280;10162;41.600;23.806;2024-03-17T10:16:43;95315.84;;;16.10;58.79
20003;BME280;10162;41.600;23.806;2024-03-17T10:23:06;95316.44;;;16.24;58.80
20003;BME280;10162;41.600;23.806;2024-03-17T10:25:34;95331.00;;;16.56;57.43
20003;BME280;10162;41.600;23.806;2024-03-17T10:31:59;95301.25;;;16.07;55.74
20003;BME280;10162;41.600;23.806;2024-03-17T10:34:27;95305.69;;;15.95;55.21
20003;BME280;10162;41.600;23.806;2024-03-17T10:37:13;95322.72;;;16.11;56.08
20003;BME280;10162;41.600;23.806;2024-03-17T10:39:46;95334.06;;;15.82;54.15
20003;BME280;10162;41.600;23.806;2024-03-17T10:42:25;95298.50;;;16.02;56.72
20003;BME280;10162;41.600;23.806;2024-03-17T10:44:54;95317.50;;;16.23;57.32
20003;BME280;10162;41.600;23.806;2024-03-17T10:50:39;95301.34;;;16.31;55.50
20003;BME280;10162;41.600;23.806;2024-03-17T10:53:07;95308.31;;;15.95;53.03
20003;BME280;10162;41.600;23.806;2024-03-17T10:55:44;95300.31;;;16.02;54.22
20003;BME280;10162;41.600;23.806;2024-03-17T11:04:40;95290.88;;;16.24;53.13
20003;BME280;10162;41.600;23.806;2024-03-17T11:07:15;95282.66;;;16.02;53.01
20003;BME280;10162;41.600;23.806;2024-03-17T11:09:43;95281.06;;;16.01;52.75
20003;BME280;10162;41.600;23.806;2024-03-17T11:21:50;95266.84;;;16.02;52.30
20003;BME280;10162;41.600;23.806;2024-03-17T11:42:18;95252.31;;;16.11;50.97
20003;BME280;10162;41.600;23.806;2024-03-17T11:44:55;95268.84;;;16.60;48.92
20003;BME280;10162;41.600;23.806;2024-03-17T11:47:40;95266.78;;;16.62;51.48
20003;BME280;10162;41.600;23.806;2024-03-17T11:50:08;95256.34;;;16.79;50.81
20003;BME280;10162;41.600;23.806;2024-03-17T11:52:59;95264.09;;;16.50;48.43
20003;BME280;10162;41.600;23.806;2024-03-17T12:01:55;95260.69;;;17.08;47.12
20003;BME280;10162;41.600;23.806;2024-03-17T12:04:23;95244.97;;;16.78;47.63
20003;BME280;10162;41.600;23.806;2024-03-17T12:07:16;95253.66;;;16.56;50.19
20003;BME280;10162;41.600;23.806;2024-03-17T12:09:43;95230.50;;;16.69;49.42
20003;BME280;10162;41.600;23.806;2024-03-17T12:12:21;95230.81;;;17.19;48.13
20003;BME280;10162;41.600;23.806;2024-03-17T12:14:49;95222.94;;;16.61;47.59
20003;BME280;10162;41.600;23.806;2024-03-17T12:17:46;95241.28;;;17.03;46.90
20003;BME280;10162;41.600;23.806;2024-03-17T12:20:19;95226.72;;;16.77;47.14
20003;BME280;10162;41.600;23.806;2024-03-17T12:22:45;95231.66;;;16.73;47.15
20003;BME280;10162;41.600;23.806;2024-03-17T12:25:17;95229.88;;;16.44;47.13
20003;BME280;10162;41.600;23.806;2024-03-17T12:28:18;95245.25;;;16.47;48.46
20003;BME280;10162;41.600;23.806;2024-03-17T12:30:43;95209.91;;;16.48;47.73
20003;BME280;10162;41.600;23.806;2024-03-17T12:33:11;95225.00;;;16.59;47.38
20003;BME280;10162;41.600;23.806;2024-03-17T12:35:38;95238.03;;;16.54;47.27
20003;BME280;10162;41.600;23.806;2024-03-17T12:38:27;95239.00;;;16.83;45.47
20003;BME280;10162;41.600;23.806;2024-03-17T12:40:53;95208.41;;;16.52;45.28
20003;BME280;10162;41.600;23.806;2024-03-17T12:43:19;95232.53;;;16.56;45.75
20003;BME280;10162;41.600;23.806;2024-03-17T12:45:44;95224.47;;;16.16;47.54
20003;BME280;10162;41.600;23.806;2024-03-17T12:51:19;95214.47;;;16.18;51.05
20003;BME280;10162;41.600;23.806;2024-03-17T12:53:45;95222.31;;;15.83;50.48
20003;BME280;10162;41.600;23.806;2024-03-17T12:56:11;95217.25;;;15.81;49.99
20003;BME280;10162;41.600;23.806;2024-03-17T13:02:23;95227.78;;;17.27;49.82
20003;BME280;10162;41.600;23.806;2024-03-17T13:05:17;95225.47;;;16.91;47.28
20003;BME280;10162;41.600;23.806;2024-03-17T13:11:37;95207.06;;;16.49;45.67
20003;BME280;10162;41.600;23.806;2024-03-17T13:14:03;95209.09;;;16.36;46.59
20003;BME280;10162;41.600;23.806;2024-03-17T13:16:29;95206.84;;;16.51;46.99
20003;BME280;10162;41.600;23.806;2024-03-17T13:22:49;95214.44;;;15.94;47.13
20003;BME280;10162;41.600;23.806;2024-03-17T13:25:22;95227.31;;;16.14;46.31
20003;BME280;10162;41.600;23.806;2024-03-17T13:31:10;95223.69;;;16.38;45.88
20003;BME280;10162;41.600;23.806;2024-03-17T13:33:36;95211.81;;;16.18;46.17
20003;BME280;10162;41.600;23.806;2024-03-17T13:36:02;95229.09;;;16.43;46.51
20003;BME280;10162;41.600;23.806;2024-03-17T13:42:21;95195.69;;;15.73;48.95
20003;BME280;10162;41.600;23.806;2024-03-17T13:44:47;95222.22;;;16.01;50.17
20003;BME280;10162;41.600;23.806;2024-03-17T13:50:45;95207.50;;;16.11;50.76
20003;BME280;10162;41.600;23.806;2024-03-17T13:53:12;95216.56;;;16.27;49.95
20003;BME280;10162;41.600;23.806;2024-03-17T13:55:38;95197.19;;;16.22;49.99
20003;BME280;10162;41.600;23.806;2024-03-17T14:01:58;95199.59;;;15.70;51.89
20003;BME280;10162;41.600;23.806;2024-03-17T14:04:24;95191.44;;;16.48;50.49
20003;BME280;10162;41.600;23.806;2024-03-17T14:06:50;95190.16;;;16.04;50.83
20003;BME280;10162;41.600;23.806;2024-03-17T14:13:10;95178.91;;;16.08;51.53
20003;BME280;10162;41.600;23.806;2024-03-17T14:15:36;95183.50;;;16.13;50.52
20003;BME280;10162;41.600;23.806;2024-03-17T14:21:55;95170.53;;;16.93;48.59
20003;BME280;10162;41.600;23.806;2024-03-17T14:24:22;95179.59;;;17.77;45.39
20003;BME280;10162;41.600;23.806;2024-03-17T14:26:47;95179.09;;;17.63;45.78
20003;BME280;10162;41.600;23.806;2024-03-17T14:33:07;95172.13;;;17.74;46.37
20003;BME280;10162;41.600;23.806;2024-03-17T14:35:33;95167.34;;;17.71;46.90
20003;BME280;10162;41.600;23.806;2024-03-17T14:41:54;95168.00;;;16.98;47.32
20003;BME280;10162;41.600;23.806;2024-03-17T14:44:20;95173.03;;;17.11;47.93
20003;BME280;10162;41.600;23.806;2024-03-17T14:46:45;95159.28;;;17.38;48.25
20003;BME280;10162;41.600;23.806;2024-03-17T14:53:05;95163.56;;;16.40;48.65
20003;BME280;10162;41.600;23.806;2024-03-17T14:55:31;95169.31;;;16.49;48.27
20003;BME280;10162;41.600;23.806;2024-03-17T15:01:50;95167.16;;;17.21;46.83
20003;BME280;10162;41.600;23.806;2024-03-17T15:04:16;95165.63;;;16.85;46.38
20003;BME280;10162;41.600;23.806;2024-03-17T15:06:46;95162.53;;;16.30;47.68
20003;BME280;10162;41.600;23.806;2024-03-17T15:51:54;95171.09;;;13.90;63.26
20003;BME280;10162;41.600;23.806;2024-03-17T15:54:20;95198.94;;;13.97;65.01
20003;BME280;10162;41.600;23.806;2024-03-17T15:56:46;95176.53;;;13.63;67.49
20003;BME280;10162;41.600;23.806;2024-03-17T15:59:13;95181.28;;;13.48;69.28
20003;BME280;10162;41.600;23.806;2024-03-17T16:01:38;95164.41;;;13.31;70.43
20003;BME280;10162;41.600;23.806;2024-03-17T16:04:04;95166.28;;;13.11;73.50
20003;BME280;10162;41.600;23.806;2024-03-17T16:06:30;95163.16;;;12.89;76.55
20003;BME280;10162;41.600;23.806;2024-03-17T16:08:58;95210.78;;;12.93;79.71
20003;BME280;10162;41.600;23.806;2024-03-17T16:11:27;95185.03;;;12.70;80.95
20003;BME280;10162;41.600;23.806;2024-03-17T16:13:55;95149.53;;;12.54;80.67
20003;BME280;10162;41.600;23.806;2024-03-17T16:33:11;95197.34;;;12.56;69.88
20003;BME280;10162;41.600;23.806;2024-03-17T16:35:38;95225.97;;;12.71;68.41
20003;BME280;10162;41.600;23.806;2024-03-17T16:38:04;95168.34;;;12.25;67.63
20003;BME280;10162;41.600;23.806;2024-03-17T16:40:30;95207.66;;;12.38;67.65
20003;BME280;10162;41.600;23.806;2024-03-17T16:42:56;95231.63;;;12.55;71.74
20003;BME280;10162;41.600;23.806;2024-03-17T16:45:26;95191.16;;;12.24;71.58
20003;BME280;10162;41.600;23.806;2024-03-17T16:47:53;95251.41;;;12.57;71.12
20003;BME280;10162;41.600;23.806;2024-03-17T16:50:19;95255.63;;;12.71;74.03
20003;BME280;10162;41.600;23.806;2024-03-17T16:52:45;95236.88;;;12.61;77.55
20003;BME280;10162;41.600;23.806;2024-03-17T16:55:11;95234.88;;;12.57;78.28
20003;BME280;10162;41.600;23.806;2024-03-17T16:57:37;95273.97;;;12.78;79.02
20003;BME280;10162;41.600;23.806;2024-03-17T17:00:03;95238.88;;;12.66;79.19
20003;BME280;10162;41.600;23.806;2024-03-17T17:02:39;95277.59;;;12.83;79.58
20003;BME280;10162;41.600;23.806;2024-03-17T17:05:08;95288.91;;;12.84;79.14
20003;BME280;10162;41.600;23.806;2024-03-17T17:07:41;95253.44;;;12.55;78.69
20003;BME280;10162;41.600;23.806;2024-03-17T17:10:12;95271.97;;;12.67;77.45
20003;BME280;10162;41.600;23.806;2024-03-17T17:12:38;95247.56;;;12.53;76.60
20003;BME280;10162;41.600;23.806;2024-03-17T17:15:11;95271.59;;;12.57;77.36
20003;BME280;10162;41.600;23.806;2024-03-17T17:17:54;95282.91;;;12.57;80.15
20003;BME280;10162;41.600;23.806;2024-03-17T17:20:23;95264.53;;;12.51;81.33